sensor_id;sensor_type;location;lat;lon;timestamp;temperature;humidity
55369;DHT22;41247;49.736;8.752;2022-09-30T00:01:35;6.20;99.90
55369;DHT22;41247;49.736;8.752;2022-09-30T00:05:16;6.20;99.90
55369;DHT22;41247;49.736;8.752;2022-09-30T00:08:56;6.20;99.90
55369;DHT22;41247;49.736;8.752;2022-09-30T00:12:37;6.30;99.90
55369;DHT22;41247;49.736;8.752;2022-09-30T00:16:19;6.30;99.90
55369;DHT22;41247;49.736;8.752;2022-09-30T00:20:01;6.30;99.90
55369;DHT22;41247;49.736;8.752;2022-09-30T00:23:43;6.40;99.90
55369;DHT22;41247;49.736;8.752;2022-09-30T00:27:24;6.40;99.90
55369;DHT22;41247;49.736;8.752;2022-09-30T00:31:07;6.50;99.90
55369;DHT22;41247;49.736;8.752;2022-09-30T00:34:50;6.60;99.90
55369;DHT22;41247;49.736;8.752;2022-09-30T00:38:30;6.60;99.90
55369;DHT22;41247;49.736;8.752;2022-09-30T00:42:13;6.60;99.90
55369;DHT22;41247;49.736;8.752;2022-09-30T00:45:57;6.70;99.90
55369;DHT22;41247;49.736;8.752;2022-09-30T00:49:38;6.70;99.90
55369;DHT22;41247;49.736;8.752;2022-09-30T00:53:23;6.80;99.90
55369;DHT22;41247;49.736;8.752;2022-09-30T00:57:09;6.90;99.90
55369;DHT22;41247;49.736;8.752;2022-09-30T01:00:50;6.90;99.90
55369;DHT22;41247;49.736;8.752;2022-09-30T01:04:31;6.90;99.90
55369;DHT22;41247;49.736;8.752;2022-09-30T01:08:16;7.00;99.90
55369;DHT22;41247;49.736;8.752;2022-09-30T01:11:58;7.10;99.90
55369;DHT22;41247;49.736;8.752;2022-09-30T01:16:01;7.10;99.90
55369;DHT22;41247;49.736;8.752;2022-09-30T01:24:38;7.30;99.90
55369;DHT22;41247;49.736;8.752;2022-09-30T01:33:12;7.40;99.90
55369;DHT22;41247;49.736;8.752;2022-09-30T01:41:21;7.60;99.90
55369;DHT22;41247;49.736;8.752;2022-09-30T01:45:34;7.60;99.90
55369;DHT22;41247;49.736;8.752;2022-09-30T01:53:38;7.70;99.90
55369;DHT22;41247;49.736;8.752;2022-09-30T01:57:30;7.80;99.90
55369;DHT22;41247;49.736;8.752;2022-09-30T02:01:24;7.80;99.90
55369;DHT22;41247;49.736;8.752;2022-09-30T02:05:11;7.80;99.90
55369;DHT22;41247;49.736;8.752;2022-09-30T02:09:03;7.90;99.90
55369;DHT22;41247;49.736;8.752;2022-09-30T02:12:52;7.90;99.90
55369;DHT22;41247;49.736;8.752;2022-09-30T02:16:39;7.90;99.90
55369;DHT22;41247;49.736;8.752;2022-09-30T02:20:32;7.90;99.90
55369;DHT22;41247;49.736;8.752;2022-09-30T02:24:16;8.00;99.90
55369;DHT22;41247;49.736;8.752;2022-09-30T02:28:02;8.00;99.90
55369;DHT22;41247;49.736;8.752;2022-09-30T02:31:47;8.00;99.90
55369;DHT22;41247;49.736;8.752;2022-09-30T02:35:34;8.10;99.90
55369;DHT22;41247;49.736;8.752;2022-09-30T02:39:24;8.10;99.90
55369;DHT22;41247;49.736;8.752;2022-09-30T02:43:11;8.10;99.90
55369;DHT22;41247;49.736;8.752;2022-09-30T02:47:23;8.20;99.90
55369;DHT22;41247;49.736;8.752;2022-09-30T02:56:11;8.20;99.90
55369;DHT22;41247;49.736;8.752;2022-09-30T02:59:57;8.20;99.90
55369;DHT22;41247;49.736;8.752;2022-09-30T03:03:42;8.20;99.90
55369;DHT22;41247;49.736;8.752;2022-09-30T03:07:23;8.20;99.90
55369;DHT22;41247;49.736;8.752;2022-09-30T03:11:04;8.20;99.90
55369;DHT22;41247;49.736;8.752;2022-09-30T03:15:04;8.30;99.90
55369;DHT22;41247;49.736;8.752;2022-09-30T03:39:27;8.20;99.90
55369;DHT22;41247;49.736;8.752;2022-09-30T03:43:22;8.10;99.90
55369;DHT22;41247;49.736;8.752;2022-09-30T03:47:24;7.90;99.90
55369;DHT22;41247;49.736;8.752;2022-09-30T03:51:06;7.80;99.90
55369;DHT22;41247;49.736;8.752;2022-09-30T03:54:51;7.60;99.90
55369;DHT22;41247;49.736;8.752;2022-09-30T03:58:38;7.50;99.90
55369;DHT22;41247;49.736;8.752;2022-09-30T04:02:21;7.30;99.90
55369;DHT22;41247;49.736;8.752;2022-09-30T04:06:02;7.20;99.90
55369;DHT22;41247;49.736;8.752;2022-09-30T04:09:43;7.10;99.90
55369;DHT22;41247;49.736;8.752;2022-09-30T04:13:24;6.90;99.90
55369;DHT22;41247;49.736;8.752;2022-09-30T04:17:05;6.80;99.90
55369;DHT22;41247;49.736;8.752;2022-09-30T04:20:45;6.70;99.90
55369;DHT22;41247;49.736;8.752;2022-09-30T04:24:26;6.60;99.90
55369;DHT22;41247;49.736;8.752;2022-09-30T04:28:07;6.50;99.90
55369;DHT22;41247;49.736;8.752;2022-09-30T04:31:47;6.50;99.90
55369;DHT22;41247;49.736;8.752;2022-09-30T04:35:28;6.40;99.90
55369;DHT22;41247;49.736;8.752;2022-09-30T04:39:08;6.40;99.90
55369;DHT22;41247;49.736;8.752;2022-09-30T04:47:28;6.00;99.90
55369;DHT22;41247;49.736;8.752;2022-09-30T04:51:10;5.90;99.90
55369;DHT22;41247;49.736;8.752;2022-09-30T04:55:07;5.90;99.90
55369;DHT22;41247;49.736;8.752;2022-09-30T04:58:47;5.90;99.90
55369;DHT22;41247;49.736;8.752;2022-09-30T05:02:31;5.90;99.90
55369;DHT22;41247;49.736;8.752;2022-09-30T05:06:12;5.90;99.90
55369;DHT22;41247;49.736;8.752;2022-09-30T05:10:05;5.80;99.90
55369;DHT22;41247;49.736;8.752;2022-09-30T05:14:24;5.70;99.90
55369;DHT22;41247;49.736;8.752;2022-09-30T05:18:35;5.60;99.90
55369;DHT22;41247;49.736;8.752;2022-09-30T05:22:39;5.60;99.90
55369;DHT22;41247;49.736;8.752;2022-09-30T05:26:25;5.60;99.90
55369;DHT22;41247;49.736;8.752;2022-09-30T05:30:09;5.60;99.90
55369;DHT22;41247;49.736;8.752;2022-09-30T05:33:50;5.50;99.90
55369;DHT22;41247;49.736;8.752;2022-09-30T05:37:31;5.50;99.90
55369;DHT22;41247;49.736;8.752;2022-09-30T05:41:20;5.50;99.90
55369;DHT22;41247;49.736;8.752;2022-09-30T05:45:05;5.40;99.90
55369;DHT22;41247;49.736;8.752;2022-09-30T05:48:46;5.40;99.90
55369;DHT22;41247;49.736;8.752;2022-09-30T05:52:53;5.40;99.90
55369;DHT22;41247;49.736;8.752;2022-09-30T05:56:35;5.40;99.90
55369;DHT22;41247;49.736;8.752;2022-09-30T06:00:22;5.40;99.90
55369;DHT22;41247;49.736;8.752;2022-09-30T06:04:03;5.40;99.90
55369;DHT22;41247;49.736;8.752;2022-09-30T06:07:44;5.50;99.90
55369;DHT22;41247;49.736;8.752;2022-09-30T06:11:24;5.50;99.90
55369;DHT22;41247;49.736;8.752;2022-09-30T06:15:05;5.50;99.90
55369;DHT22;41247;49.736;8.752;2022-09-30T06:18:47;5.50;99.90
55369;DHT22;41247;49.736;8.752;2022-09-30T06:22:27;5.60;99.90
55369;DHT22;41247;49.736;8.752;2022-09-30T06:26:10;5.50;99.90
55369;DHT22;41247;49.736;8.752;2022-09-30T06:29:51;5.60;99.90
55369;DHT22;41247;49.736;8.752;2022-09-30T06:33:32;5.60;99.90
55369;DHT22;41247;49.736;8.752;2022-09-30T06:37:13;5.70;99.90
55369;DHT22;41247;49.736;8.752;2022-09-30T06:40:53;5.80;99.90
55369;DHT22;41247;49.736;8.752;2022-09-30T06:44:34;5.80;99.90
55369;DHT22;41247;49.736;8.752;2022-09-30T06:48:15;5.80;99.90
55369;DHT22;41247;49.736;8.752;2022-09-30T06:51:56;5.90;99.90
55369;DHT22;41247;49.736;8.752;2022-09-30T06:55:37;6.00;99.90
55369;DHT22;41247;49.736;8.752;2022-09-30T06:59:18;6.10;99.90
55369;DHT22;41247;49.736;8.752;2022-09-30T07:02:58;6.10;99.90
55369;DHT22;41247;49.736;8.752;2022-09-30T07:06:39;6.20;99.90
55369;DHT22;41247;49.736;8.752;2022-09-30T07:10:20;6.30;99.90
55369;DHT22;41247;49.736;8.752;2022-09-30T07:14:00;6.30;99.90
55369;DHT22;41247;49.736;8.752;2022-09-30T07:17:41;6.40;99.90
55369;DHT22;41247;49.736;8.752;2022-09-30T07:21:21;6.40;99.90
55369;DHT22;41247;49.736;8.752;2022-09-30T07:25:03;6.50;99.90
55369;DHT22;41247;49.736;8.752;2022-09-30T07:28:44;6.50;99.90
55369;DHT22;41247;49.736;8.752;2022-09-30T07:32:25;6.50;99.90
55369;DHT22;41247;49.736;8.752;2022-09-30T07:36:06;6.60;99.90
55369;DHT22;41247;49.736;8.752;2022-09-30T07:39:47;6.60;99.90
55369;DHT22;41247;49.736;8.752;2022-09-30T07:43:30;6.60;99.90
55369;DHT22;41247;49.736;8.752;2022-09-30T07:47:11;6.70;99.90
55369;DHT22;41247;49.736;8.752;2022-09-30T07:50:53;6.70;99.90
55369;DHT22;41247;49.736;8.752;2022-09-30T07:54:33;6.80;99.90
55369;DHT22;41247;49.736;8.752;2022-09-30T07:58:14;6.90;99.90
55369;DHT22;41247;49.736;8.752;2022-09-30T08:01:55;7.00;99.90
55369;DHT22;41247;49.736;8.752;2022-09-30T08:05:40;7.20;99.90
55369;DHT22;41247;49.736;8.752;2022-09-30T08:09:23;7.30;99.90
55369;DHT22;41247;49.736;8.752;2022-09-30T08:13:05;7.40;99.90
55369;DHT22;41247;49.736;8.752;2022-09-30T08:16:47;7.40;99.90
55369;DHT22;41247;49.736;8.752;2022-09-30T08:20:28;7.50;99.90
55369;DHT22;41247;49.736;8.752;2022-09-30T08:24:09;7.50;99.90
55369;DHT22;41247;49.736;8.752;2022-09-30T08:27:50;7.60;99.90
55369;DHT22;41247;49.736;8.752;2022-09-30T08:31:31;7.90;99.90
55369;DHT22;41247;49.736;8.752;2022-09-30T08:35:12;8.10;99.90
55369;DHT22;41247;49.736;8.752;2022-09-30T08:38:53;8.30;99.90
55369;DHT22;41247;49.736;8.752;2022-09-30T08:43:03;8.60;99.90
55369;DHT22;41247;49.736;8.752;2022-09-30T08:46:54;8.90;99.90
55369;DHT22;41247;49.736;8.752;2022-09-30T08:50:50;9.10;99.90
55369;DHT22;41247;49.736;8.752;2022-09-30T08:54:49;9.20;99.90
55369;DHT22;41247;49.736;8.752;2022-09-30T08:58:36;9.30;99.90
55369;DHT22;41247;49.736;8.752;2022-09-30T09:02:22;9.50;99.90
55369;DHT22;41247;49.736;8.752;2022-09-30T09:10:31;9.80;99.90
55369;DHT22;41247;49.736;8.752;2022-09-30T09:22:36;10.30;99.90
55369;DHT22;41247;49.736;8.752;2022-09-30T09:26:17;10.80;99.90
55369;DHT22;41247;49.736;8.752;2022-09-30T09:30:09;11.30;99.90
55369;DHT22;41247;49.736;8.752;2022-09-30T09:33:52;11.70;99.90
55369;DHT22;41247;49.736;8.752;2022-09-30T09:37:41;12.10;99.90
55369;DHT22;41247;49.736;8.752;2022-09-30T09:49:28;12.70;99.90
55369;DHT22;41247;49.736;8.752;2022-09-30T09:57:30;12.90;99.90
55369;DHT22;41247;49.736;8.752;2022-09-30T10:01:10;13.00;99.90
55369;DHT22;41247;49.736;8.752;2022-09-30T10:04:51;13.20;99.90
55369;DHT22;41247;49.736;8.752;2022-09-30T10:08:35;13.40;99.90
55369;DHT22;41247;49.736;8.752;2022-09-30T10:12:25;13.60;99.90
55369;DHT22;41247;49.736;8.752;2022-09-30T10:16:33;13.80;99.90
55369;DHT22;41247;49.736;8.752;2022-09-30T10:23:56;14.20;99.90
55369;DHT22;41247;49.736;8.752;2022-09-30T10:27:56;14.40;99.90
55369;DHT22;41247;49.736;8.752;2022-09-30T10:31:42;14.30;99.90
55369;DHT22;41247;49.736;8.752;2022-09-30T10:35:23;13.90;99.90
55369;DHT22;41247;49.736;8.752;2022-09-30T10:43:28;13.50;99.90
55369;DHT22;41247;49.736;8.752;2022-09-30T10:47:19;13.80;99.90
55369;DHT22;41247;49.736;8.752;2022-09-30T10:51:02;13.60;99.90
55369;DHT22;41247;49.736;8.752;2022-09-30T10:54:49;13.40;99.90
55369;DHT22;41247;49.736;8.752;2022-09-30T10:58:42;13.20;99.90
55369;DHT22;41247;49.736;8.752;2022-09-30T11:02:30;13.60;99.90
55369;DHT22;41247;49.736;8.752;2022-09-30T11:06:16;14.10;99.90
55369;DHT22;41247;49.736;8.752;2022-09-30T11:10:38;14.20;99.90
55369;DHT22;41247;49.736;8.752;2022-09-30T11:19:27;13.60;99.90
55369;DHT22;41247;49.736;8.752;2022-09-30T11:23:21;14.00;99.90
55369;DHT22;41247;49.736;8.752;2022-09-30T11:31:36;14.80;99.90
55369;DHT22;41247;49.736;8.752;2022-09-30T11:35:43;15.10;99.90
55369;DHT22;41247;49.736;8.752;2022-09-30T11:43:58;15.40;99.90
55369;DHT22;41247;49.736;8.752;2022-09-30T11:56:19;15.80;99.90
55369;DHT22;41247;49.736;8.752;2022-09-30T12:00:13;15.70;99.90
55369;DHT22;41247;49.736;8.752;2022-09-30T12:04:05;15.90;99.90
55369;DHT22;41247;49.736;8.752;2022-09-30T12:08:43;16.00;99.90
55369;DHT22;41247;49.736;8.752;2022-09-30T12:12:08;16.00;99.90
55369;DHT22;41247;49.736;8.752;2022-09-30T12:15:51;16.10;99.90
55369;DHT22;41247;49.736;8.752;2022-09-30T12:19:52;16.20;99.90
55369;DHT22;41247;49.736;8.752;2022-09-30T12:23:40;16.30;99.90
55369;DHT22;41247;49.736;8.752;2022-09-30T12:27:33;16.50;99.90
55369;DHT22;41247;49.736;8.752;2022-09-30T12:36:08;16.60;99.90
55369;DHT22;41247;49.736;8.752;2022-09-30T12:40:22;16.60;99.90
55369;DHT22;41247;49.736;8.752;2022-09-30T12:48:26;16.70;99.90
55369;DHT22;41247;49.736;8.752;2022-09-30T12:52:15;16.80;99.90
55369;DHT22;41247;49.736;8.752;2022-09-30T13:00:01;16.30;99.90
55369;DHT22;41247;49.736;8.752;2022-09-30T13:12:38;16.90;99.90
55369;DHT22;41247;49.736;8.752;2022-09-30T13:15:45;16.80;99.90
55369;DHT22;41247;49.736;8.752;2022-09-30T13:19:47;17.20;99.90
55369;DHT22;41247;49.736;8.752;2022-09-30T13:23:35;17.40;99.90
55369;DHT22;41247;49.736;8.752;2022-09-30T13:27:16;17.20;99.90
55369;DHT22;41247;49.736;8.752;2022-09-30T13:31:15;17.60;99.90
55369;DHT22;41247;49.736;8.752;2022-09-30T13:35:31;17.90;99.90
55369;DHT22;41247;49.736;8.752;2022-09-30T13:39:28;18.00;99.90
55369;DHT22;41247;49.736;8.752;2022-09-30T13:43:30;17.90;99.90
55369;DHT22;41247;49.736;8.752;2022-09-30T13:48:06;17.70;99.90
55369;DHT22;41247;49.736;8.752;2022-09-30T13:51:53;17.70;99.90
55369;DHT22;41247;49.736;8.752;2022-09-30T13:55:41;17.70;99.90
55369;DHT22;41247;49.736;8.752;2022-09-30T13:59:44;17.70;99.90
55369;DHT22;41247;49.736;8.752;2022-09-30T14:03:43;17.80;99.90
55369;DHT22;41247;49.736;8.752;2022-09-30T14:08:05;17.90;99.90
55369;DHT22;41247;49.736;8.752;2022-09-30T14:11:57;17.70;99.90
55369;DHT22;41247;49.736;8.752;2022-09-30T14:16:05;17.60;99.90
55369;DHT22;41247;49.736;8.752;2022-09-30T14:24:28;19.60;99.90
55369;DHT22;41247;49.736;8.752;2022-09-30T14:28:14;21.60;99.90
55369;DHT22;41247;49.736;8.752;2022-09-30T14:31:58;23.60;99.90
55369;DHT22;41247;49.736;8.752;2022-09-30T14:35:39;24.90;99.90
55369;DHT22;41247;49.736;8.752;2022-09-30T14:39:24;25.60;99.90
55369;DHT22;41247;49.736;8.752;2022-09-30T14:43:18;26.30;99.90
55369;DHT22;41247;49.736;8.752;2022-09-30T14:47:02;27.30;99.90
55369;DHT22;41247;49.736;8.752;2022-09-30T14:50:49;23.70;99.90
55369;DHT22;41247;49.736;8.752;2022-09-30T14:54:32;21.50;99.90
55369;DHT22;41247;49.736;8.752;2022-09-30T14:58:27;20.50;99.90
55369;DHT22;41247;49.736;8.752;2022-09-30T15:02:15;19.30;99.90
55369;DHT22;41247;49.736;8.752;2022-09-30T15:05:57;18.20;99.90
55369;DHT22;41247;49.736;8.752;2022-09-30T15:09:43;17.60;99.90
55369;DHT22;41247;49.736;8.752;2022-09-30T15:13:27;16.80;99.90
55369;DHT22;41247;49.736;8.752;2022-09-30T15:17:18;16.20;99.90
55369;DHT22;41247;49.736;8.752;2022-09-30T15:21:06;16.10;99.90
55369;DHT22;41247;49.736;8.752;2022-09-30T15:24:49;15.90;99.90
55369;DHT22;41247;49.736;8.752;2022-09-30T15:28:31;15.70;99.90
55369;DHT22;41247;49.736;8.752;2022-09-30T15:32:20;15.50;99.90
55369;DHT22;41247;49.736;8.752;2022-09-30T15:36:16;15.40;99.90
55369;DHT22;41247;49.736;8.752;2022-09-30T15:39:58;15.30;99.90
55369;DHT22;41247;49.736;8.752;2022-09-30T15:43:44;15.10;99.90
55369;DHT22;41247;49.736;8.752;2022-09-30T15:47:27;15.10;99.90
55369;DHT22;41247;49.736;8.752;2022-09-30T15:51:29;15.00;99.90
55369;DHT22;41247;49.736;8.752;2022-09-30T15:59:17;14.90;99.90
55369;DHT22;41247;49.736;8.752;2022-09-30T16:03:25;14.80;99.90
55369;DHT22;41247;49.736;8.752;2022-09-30T16:07:08;14.70;99.90
55369;DHT22;41247;49.736;8.752;2022-09-30T16:10:53;14.60;99.90
55369;DHT22;41247;49.736;8.752;2022-09-30T16:14:58;14.50;99.90
55369;DHT22;41247;49.736;8.752;2022-09-30T16:18:46;14.40;99.90
55369;DHT22;41247;49.736;8.752;2022-09-30T16:26:27;14.00;99.90
55369;DHT22;41247;49.736;8.752;2022-09-30T16:30:28;14.00;99.90
55369;DHT22;41247;49.736;8.752;2022-09-30T16:34:28;14.40;99.90
55369;DHT22;41247;49.736;8.752;2022-09-30T16:38:15;14.10;99.90
55369;DHT22;41247;49.736;8.752;2022-09-30T16:41:57;13.80;99.90
55369;DHT22;41247;49.736;8.752;2022-09-30T16:45:38;13.50;99.90
55369;DHT22;41247;49.736;8.752;2022-09-30T16:49:19;13.10;99.90
55369;DHT22;41247;49.736;8.752;2022-09-30T16:52:59;12.80;99.90
55369;DHT22;41247;49.736;8.752;2022-09-30T16:56:40;12.40;99.90
55369;DHT22;41247;49.736;8.752;2022-09-30T17:00:21;12.00;99.90
55369;DHT22;41247;49.736;8.752;2022-09-30T17:04:02;11.70;99.90
55369;DHT22;41247;49.736;8.752;2022-09-30T17:07:46;11.40;99.90
55369;DHT22;41247;49.736;8.752;2022-09-30T17:11:37;11.10;99.90
55369;DHT22;41247;49.736;8.752;2022-09-30T17:15:19;10.80;99.90
55369;DHT22;41247;49.736;8.752;2022-09-30T17:19:00;10.60;99.90
55369;DHT22;41247;49.736;8.752;2022-09-30T17:22:40;10.30;99.90
55369;DHT22;41247;49.736;8.752;2022-09-30T17:26:21;10.10;99.90
55369;DHT22;41247;49.736;8.752;2022-09-30T17:30:03;9.90;99.90
55369;DHT22;41247;49.736;8.752;2022-09-30T17:33:45;9.70;99.90
55369;DHT22;41247;49.736;8.752;2022-09-30T17:37:28;9.50;99.90
55369;DHT22;41247;49.736;8.752;2022-09-30T17:41:09;9.40;99.90
55369;DHT22;41247;49.736;8.752;2022-09-30T17:44:52;9.20;99.90
55369;DHT22;41247;49.736;8.752;2022-09-30T17:48:32;9.10;99.90
55369;DHT22;41247;49.736;8.752;2022-09-30T17:52:13;9.00;99.90
55369;DHT22;41247;49.736;8.752;2022-09-30T17:56:15;8.80;99.90
55369;DHT22;41247;49.736;8.752;2022-09-30T17:59:57;8.70;99.90
55369;DHT22;41247;49.736;8.752;2022-09-30T18:03:37;8.60;99.90
55369;DHT22;41247;49.736;8.752;2022-09-30T18:07:18;8.60;99.90
55369;DHT22;41247;49.736;8.752;2022-09-30T18:10:59;8.50;99.90
55369;DHT22;41247;49.736;8.752;2022-09-30T18:14:40;8.40;99.90
55369;DHT22;41247;49.736;8.752;2022-09-30T18:18:22;8.30;99.90
55369;DHT22;41247;49.736;8.752;2022-09-30T18:22:02;8.20;99.90
55369;DHT22;41247;49.736;8.752;2022-09-30T18:25:46;8.20;99.90
55369;DHT22;41247;49.736;8.752;2022-09-30T18:29:27;8.10;99.90
55369;DHT22;41247;49.736;8.752;2022-09-30T18:33:08;8.10;99.90
55369;DHT22;41247;49.736;8.752;2022-09-30T18:36:49;8.10;99.90
55369;DHT22;41247;49.736;8.752;2022-09-30T18:40:30;8.00;99.90
55369;DHT22;41247;49.736;8.752;2022-09-30T18:44:10;8.10;99.90
55369;DHT22;41247;49.736;8.752;2022-09-30T18:47:56;8.00;99.90
55369;DHT22;41247;49.736;8.752;2022-09-30T18:51:38;8.00;99.90
55369;DHT22;41247;49.736;8.752;2022-09-30T18:55:19;8.00;99.90
55369;DHT22;41247;49.736;8.752;2022-09-30T18:59:02;8.00;99.90
55369;DHT22;41247;49.736;8.752;2022-09-30T19:02:43;8.00;99.90
55369;DHT22;41247;49.736;8.752;2022-09-30T19:06:24;8.00;99.90
55369;DHT22;41247;49.736;8.752;2022-09-30T19:10:06;8.00;99.90
55369;DHT22;41247;49.736;8.752;2022-09-30T19:13:50;8.00;99.90
55369;DHT22;41247;49.736;8.752;2022-09-30T19:17:32;8.40;99.90
55369;DHT22;41247;49.736;8.752;2022-09-30T19:21:14;8.80;99.90
55369;DHT22;41247;49.736;8.752;2022-09-30T19:24:55;9.00;99.90
55369;DHT22;41247;49.736;8.752;2022-09-30T19:28:35;9.10;99.90
55369;DHT22;41247;49.736;8.752;2022-09-30T19:32:17;9.20;99.90
55369;DHT22;41247;49.736;8.752;2022-09-30T19:36:08;9.40;99.90
55369;DHT22;41247;49.736;8.752;2022-09-30T19:39:49;9.50;99.90
55369;DHT22;41247;49.736;8.752;2022-09-30T19:43:30;9.70;99.90
55369;DHT22;41247;49.736;8.752;2022-09-30T19:47:11;9.70;99.90
55369;DHT22;41247;49.736;8.752;2022-09-30T19:51:01;9.90;99.90
55369;DHT22;41247;49.736;8.752;2022-09-30T19:54:43;10.00;99.90
55369;DHT22;41247;49.736;8.752;2022-09-30T19:58:23;10.00;99.90
55369;DHT22;41247;49.736;8.752;2022-09-30T20:02:04;10.00;99.90
55369;DHT22;41247;49.736;8.752;2022-09-30T20:05:44;10.10;99.90
55369;DHT22;41247;49.736;8.752;2022-09-30T20:09:25;10.10;99.90
55369;DHT22;41247;49.736;8.752;2022-09-30T20:13:05;10.10;99.90
55369;DHT22;41247;49.736;8.752;2022-09-30T20:16:46;10.20;99.90
55369;DHT22;41247;49.736;8.752;2022-09-30T20:20:27;10.10;99.90
55369;DHT22;41247;49.736;8.752;2022-09-30T20:24:09;10.10;99.90
55369;DHT22;41247;49.736;8.752;2022-09-30T20:27:50;9.90;99.90
55369;DHT22;41247;49.736;8.752;2022-09-30T20:31:31;9.70;99.90
55369;DHT22;41247;49.736;8.752;2022-09-30T20:35:12;9.60;99.90
55369;DHT22;41247;49.736;8.752;2022-09-30T20:38:54;9.40;99.90
55369;DHT22;41247;49.736;8.752;2022-09-30T20:42:36;9.30;99.90
55369;DHT22;41247;49.736;8.752;2022-09-30T20:46:16;9.20;99.90
55369;DHT22;41247;49.736;8.752;2022-09-30T20:49:58;9.10;99.90
55369;DHT22;41247;49.736;8.752;2022-09-30T20:53:38;9.20;99.90
55369;DHT22;41247;49.736;8.752;2022-09-30T20:57:19;9.20;99.90
55369;DHT22;41247;49.736;8.752;2022-09-30T21:01:01;9.20;99.90
55369;DHT22;41247;49.736;8.752;2022-09-30T21:04:43;9.20;99.90
55369;DHT22;41247;49.736;8.752;2022-09-30T21:08:24;9.30;99.90
55369;DHT22;41247;49.736;8.752;2022-09-30T21:12:05;9.30;99.90
55369;DHT22;41247;49.736;8.752;2022-09-30T21:15:45;9.40;99.90
55369;DHT22;41247;49.736;8.752;2022-09-30T21:19:26;9.40;99.90
55369;DHT22;41247;49.736;8.752;2022-09-30T21:23:06;9.40;99.90
55369;DHT22;41247;49.736;8.752;2022-09-30T21:26:47;9.30;99.90
55369;DHT22;41247;49.736;8.752;2022-09-30T21:30:28;9.30;99.90
55369;DHT22;41247;49.736;8.752;2022-09-30T21:34:12;9.30;99.90
55369;DHT22;41247;49.736;8.752;2022-09-30T21:37:53;9.30;99.90
55369;DHT22;41247;49.736;8.752;2022-09-30T21:41:33;9.20;99.90
55369;DHT22;41247;49.736;8.752;2022-09-30T21:45:14;9.20;99.90
55369;DHT22;41247;49.736;8.752;2022-09-30T21:49:06;9.20;99.90
55369;DHT22;41247;49.736;8.752;2022-09-30T21:52:56;9.20;99.90
55369;DHT22;41247;49.736;8.752;2022-09-30T21:56:37;9.20;99.90
55369;DHT22;41247;49.736;8.752;2022-09-30T22:00:19;9.20;99.90
55369;DHT22;41247;49.736;8.752;2022-09-30T22:03:59;9.30;99.90
55369;DHT22;41247;49.736;8.752;2022-09-30T22:07:40;9.40;99.90
55369;DHT22;41247;49.736;8.752;2022-09-30T22:11:21;9.70;99.90
55369;DHT22;41247;49.736;8.752;2022-09-30T22:15:02;9.70;99.90
55369;DHT22;41247;49.736;8.752;2022-09-30T22:18:42;9.50;99.90
55369;DHT22;41247;49.736;8.752;2022-09-30T22:22:23;9.50;99.90
55369;DHT22;41247;49.736;8.752;2022-09-30T22:26:09;9.50;99.90
55369;DHT22;41247;49.736;8.752;2022-09-30T22:29:51;9.60;99.90
55369;DHT22;41247;49.736;8.752;2022-09-30T22:33:31;9.60;99.90
55369;DHT22;41247;49.736;8.752;2022-09-30T22:37:12;9.60;99.90
55369;DHT22;41247;49.736;8.752;2022-09-30T22:40:53;9.50;99.90
55369;DHT22;41247;49.736;8.752;2022-09-30T22:44:35;9.60;99.90
55369;DHT22;41247;49.736;8.752;2022-09-30T22:48:16;9.60;99.90
55369;DHT22;41247;49.736;8.752;2022-09-30T22:51:57;9.50;99.90
55369;DHT22;41247;49.736;8.752;2022-09-30T22:55:38;9.60;99.90
55369;DHT22;41247;49.736;8.752;2022-09-30T22:59:19;9.50;99.90
55369;DHT22;41247;49.736;8.752;2022-09-30T23:03:00;9.50;99.90
55369;DHT22;41247;49.736;8.752;2022-09-30T23:06:42;9.40;99.90
55369;DHT22;41247;49.736;8.752;2022-09-30T23:10:23;9.50;99.90
55369;DHT22;41247;49.736;8.752;2022-09-30T23:14:04;9.60;99.90
55369;DHT22;41247;49.736;8.752;2022-09-30T23:17:45;9.80;99.90
55369;DHT22;41247;49.736;8.752;2022-09-30T23:21:25;9.80;99.90
55369;DHT22;41247;49.736;8.752;2022-09-30T23:25:07;9.90;99.90
55369;DHT22;41247;49.736;8.752;2022-09-30T23:28:48;10.00;99.90
55369;DHT22;41247;49.736;8.752;2022-09-30T23:32:28;10.00;99.90
55369;DHT22;41247;49.736;8.752;2022-09-30T23:36:09;10.20;99.90
55369;DHT22;41247;49.736;8.752;2022-09-30T23:39:50;10.30;99.90
55369;DHT22;41247;49.736;8.752;2022-09-30T23:43:32;10.30;99.90
55369;DHT22;41247;49.736;8.752;2022-09-30T23:47:13;10.40;99.90
55369;DHT22;41247;49.736;8.752;2022-09-30T23:50:53;10.40;99.90
55369;DHT22;41247;49.736;8.752;2022-09-30T23:54:34;10.40;99.90
55369;DHT22;41247;49.736;8.752;2022-09-30T23:58:15;10.30;99.90
